sensor_id;sensor_type;location;lat;lon;timestamp;temperature;humidity
33109;HTU21D;19481;51.118;6.940;2022-12-18T00:04:16;-3.45;67.43
33109;HTU21D;19481;51.118;6.940;2022-12-18T00:09:20;-3.53;67.19
33109;HTU21D;19481;51.118;6.940;2022-12-18T00:14:21;-3.45;67.19
33109;HTU21D;19481;51.118;6.940;2022-12-18T00:19:24;-3.46;67.12
33109;HTU21D;19481;51.118;6.940;2022-12-18T00:24:26;-3.45;67.18
33109;HTU21D;19481;51.118;6.940;2022-12-18T00:29:27;-3.43;66.85
33109;HTU21D;19481;51.118;6.940;2022-12-18T00:34:30;-3.40;66.83
33109;HTU21D;19481;51.118;6.940;2022-12-18T00:39:32;-3.48;67.33
33109;HTU21D;19481;51.118;6.940;2022-12-18T00:44:33;-3.46;66.92
33109;HTU21D;19481;51.118;6.940;2022-12-18T00:49:36;-3.43;66.76
33109;HTU21D;19481;51.118;6.940;2022-12-18T00:54:38;-3.47;66.91
33109;HTU21D;19481;51.118;6.940;2022-12-18T00:59:39;-3.47;66.83
33109;HTU21D;19481;51.118;6.940;2022-12-18T01:04:42;-3.52;66.95
33109;HTU21D;19481;51.118;6.940;2022-12-18T01:09:44;-3.52;66.75
33109;HTU21D;19481;51.118;6.940;2022-12-18T01:14:46;-3.67;67.23
33109;HTU21D;19481;51.118;6.940;2022-12-18T01:19:49;-3.64;67.45
33109;HTU21D;19481;51.118;6.940;2022-12-18T01:24:50;-3.61;67.39
33109;HTU21D;19481;51.118;6.940;2022-12-18T01:29:52;-3.70;67.36
33109;HTU21D;19481;51.118;6.940;2022-12-18T01:34:55;-3.69;67.57
33109;HTU21D;19481;51.118;6.940;2022-12-18T01:39:57;-3.64;67.36
33109;HTU21D;19481;51.118;6.940;2022-12-18T01:45:02;-3.65;67.43
33109;HTU21D;19481;51.118;6.940;2022-12-18T01:50:09;-3.61;67.55
33109;HTU21D;19481;51.118;6.940;2022-12-18T01:55:12;-3.61;67.27
33109;HTU21D;19481;51.118;6.940;2022-12-18T02:00:18;-3.58;66.86
33109;HTU21D;19481;51.118;6.940;2022-12-18T02:05:27;-3.54;67.16
33109;HTU21D;19481;51.118;6.940;2022-12-18T02:10:32;-3.50;67.08
33109;HTU21D;19481;51.118;6.940;2022-12-18T02:15:39;-3.46;66.98
33109;HTU21D;19481;51.118;6.940;2022-12-18T02:20:47;-3.42;67.01
33109;HTU21D;19481;51.118;6.940;2022-12-18T02:26:10;-3.42;67.10
33109;HTU21D;19481;51.118;6.940;2022-12-18T02:31:17;-3.34;66.82
33109;HTU21D;19481;51.118;6.940;2022-12-18T02:36:24;-3.24;66.30
33109;HTU21D;19481;51.118;6.940;2022-12-18T02:41:29;-3.23;66.49
33109;HTU21D;19481;51.118;6.940;2022-12-18T02:46:36;-3.23;66.46
33109;HTU21D;19481;51.118;6.940;2022-12-18T02:51:44;-3.21;66.45
33109;HTU21D;19481;51.118;6.940;2022-12-18T02:56:53;-3.21;66.52
33109;HTU21D;19481;51.118;6.940;2022-12-18T03:01:58;-3.19;66.28
33109;HTU21D;19481;51.118;6.940;2022-12-18T03:12:27;-3.32;66.92
33109;HTU21D;19481;51.118;6.940;2022-12-18T03:17:32;-3.37;67.07
33109;HTU21D;19481;51.118;6.940;2022-12-18T03:22:35;-3.43;67.06
33109;HTU21D;19481;51.118;6.940;2022-12-18T03:27:43;-3.58;67.49
33109;HTU21D;19481;51.118;6.940;2022-12-18T03:32:48;-3.69;67.74
33109;HTU21D;19481;51.118;6.940;2022-12-18T03:37:51;-3.93;68.01
33109;HTU21D;19481;51.118;6.940;2022-12-18T03:42:59;-4.00;68.55
33109;HTU21D;19481;51.118;6.940;2022-12-18T03:48:07;-4.05;68.73
33109;HTU21D;19481;51.118;6.940;2022-12-18T03:53:19;-4.24;68.94
33109;HTU21D;19481;51.118;6.940;2022-12-18T03:58:26;-4.30;69.20
33109;HTU21D;19481;51.118;6.940;2022-12-18T04:03:31;-4.43;69.39
33109;HTU21D;19481;51.118;6.940;2022-12-18T04:08:34;-4.57;69.52
33109;HTU21D;19481;51.118;6.940;2022-12-18T04:13:38;-4.70;69.74
33109;HTU21D;19481;51.118;6.940;2022-12-18T04:18:40;-4.78;69.79
33109;HTU21D;19481;51.118;6.940;2022-12-18T04:23:47;-4.82;70.04
33109;HTU21D;19481;51.118;6.940;2022-12-18T04:28:50;-4.86;70.16
33109;HTU21D;19481;51.118;6.940;2022-12-18T04:33:51;-4.98;70.33
33109;HTU21D;19481;51.118;6.940;2022-12-18T04:38:53;-4.94;70.59
33109;HTU21D;19481;51.118;6.940;2022-12-18T04:43:56;-5.01;70.45
33109;HTU21D;19481;51.118;6.940;2022-12-18T04:48:57;-5.03;70.59
33109;HTU21D;19481;51.118;6.940;2022-12-18T04:53:59;-5.11;70.65
33109;HTU21D;19481;51.118;6.940;2022-12-18T04:59:02;-5.15;70.64
33109;HTU21D;19481;51.118;6.940;2022-12-18T05:04:04;-5.22;70.74
33109;HTU21D;19481;51.118;6.940;2022-12-18T05:09:05;-5.19;71.21
33109;HTU21D;19481;51.118;6.940;2022-12-18T05:14:08;-5.30;70.84
33109;HTU21D;19481;51.118;6.940;2022-12-18T05:19:10;-5.33;71.06
33109;HTU21D;19481;51.118;6.940;2022-12-18T05:24:12;-5.31;70.91
33109;HTU21D;19481;51.118;6.940;2022-12-18T05:29:15;-5.32;70.82
33109;HTU21D;19481;51.118;6.940;2022-12-18T05:34:16;-5.33;71.22
33109;HTU21D;19481;51.118;6.940;2022-12-18T05:39:18;-5.35;70.96
33109;HTU21D;19481;51.118;6.940;2022-12-18T05:44:21;-5.38;70.78
33109;HTU21D;19481;51.118;6.940;2022-12-18T05:49:23;-5.41;71.03
33109;HTU21D;19481;51.118;6.940;2022-12-18T05:54:26;-5.44;70.81
33109;HTU21D;19481;51.118;6.940;2022-12-18T05:59:29;-5.53;70.85
33109;HTU21D;19481;51.118;6.940;2022-12-18T06:04:31;-5.54;71.31
33109;HTU21D;19481;51.118;6.940;2022-12-18T06:09:33;-5.55;71.34
33109;HTU21D;19481;51.118;6.940;2022-12-18T06:14:36;-5.60;71.15
33109;HTU21D;19481;51.118;6.940;2022-12-18T06:19:37;-5.61;71.22
33109;HTU21D;19481;51.118;6.940;2022-12-18T06:24:39;-5.67;71.21
33109;HTU21D;19481;51.118;6.940;2022-12-18T06:29:42;-5.64;71.27
33109;HTU21D;19481;51.118;6.940;2022-12-18T06:34:43;-5.57;71.41
33109;HTU21D;19481;51.118;6.940;2022-12-18T06:39:45;-5.54;71.12
33109;HTU21D;19481;51.118;6.940;2022-12-18T06:44:48;-5.59;70.92
33109;HTU21D;19481;51.118;6.940;2022-12-18T06:49:49;-5.63;71.07
33109;HTU21D;19481;51.118;6.940;2022-12-18T06:54:51;-5.62;71.10
33109;HTU21D;19481;51.118;6.940;2022-12-18T06:59:54;-5.64;71.14
33109;HTU21D;19481;51.118;6.940;2022-12-18T07:04:56;-5.68;71.34
33109;HTU21D;19481;51.118;6.940;2022-12-18T07:09:57;-5.61;71.74
33109;HTU21D;19481;51.118;6.940;2022-12-18T07:15:00;-5.58;71.41
33109;HTU21D;19481;51.118;6.940;2022-12-18T07:20:02;-5.58;71.31
33109;HTU21D;19481;51.118;6.940;2022-12-18T07:25:06;-5.56;71.16
33109;HTU21D;19481;51.118;6.940;2022-12-18T07:30:10;-5.52;70.96
33109;HTU21D;19481;51.118;6.940;2022-12-18T07:35:12;-5.49;70.97
33109;HTU21D;19481;51.118;6.940;2022-12-18T07:40:13;-5.47;70.90
33109;HTU21D;19481;51.118;6.940;2022-12-18T07:45:16;-5.42;70.77
33109;HTU21D;19481;51.118;6.940;2022-12-18T07:50:18;-5.34;71.29
33109;HTU21D;19481;51.118;6.940;2022-12-18T07:55:20;-5.27;70.77
33109;HTU21D;19481;51.118;6.940;2022-12-18T08:00:23;-5.18;70.38
33109;HTU21D;19481;51.118;6.940;2022-12-18T08:05:24;-5.14;70.22
33109;HTU21D;19481;51.118;6.940;2022-12-18T08:10:26;-5.05;70.34
33109;HTU21D;19481;51.118;6.940;2022-12-18T08:15:29;-4.91;69.90
33109;HTU21D;19481;51.118;6.940;2022-12-18T08:20:31;-4.70;69.52
33109;HTU21D;19481;51.118;6.940;2022-12-18T08:25:38;-4.54;68.80
33109;HTU21D;19481;51.118;6.940;2022-12-18T08:30:41;-4.38;68.81
33109;HTU21D;19481;51.118;6.940;2022-12-18T08:35:43;-4.16;67.95
33109;HTU21D;19481;51.118;6.940;2022-12-18T08:40:44;-3.92;67.56
33109;HTU21D;19481;51.118;6.940;2022-12-18T08:45:47;-3.45;67.05
33109;HTU21D;19481;51.118;6.940;2022-12-18T08:50:54;-2.90;64.87
33109;HTU21D;19481;51.118;6.940;2022-12-18T08:55:56;-2.30;62.88
33109;HTU21D;19481;51.118;6.940;2022-12-18T09:01:01;-1.69;62.84
33109;HTU21D;19481;51.118;6.940;2022-12-18T09:06:03;-1.35;61.47
33109;HTU21D;19481;51.118;6.940;2022-12-18T09:11:12;-1.18;62.28
33109;HTU21D;19481;51.118;6.940;2022-12-18T09:16:15;-1.11;62.37
33109;HTU21D;19481;51.118;6.940;2022-12-18T09:21:18;-1.04;62.31
33109;HTU21D;19481;51.118;6.940;2022-12-18T09:26:21;-1.04;62.82
33109;HTU21D;19481;51.118;6.940;2022-12-18T09:31:24;-0.38;61.48
33109;HTU21D;19481;51.118;6.940;2022-12-18T09:36:25;-0.23;60.62
33109;HTU21D;19481;51.118;6.940;2022-12-18T09:41:38;-0.20;56.91
33109;HTU21D;19481;51.118;6.940;2022-12-18T09:46:44;0.06;56.54
33109;HTU21D;19481;51.118;6.940;2022-12-18T09:51:52;-0.00;60.74
33109;HTU21D;19481;51.118;6.940;2022-12-18T09:56:55;0.35;60.44
33109;HTU21D;19481;51.118;6.940;2022-12-18T10:01:58;0.39;61.44
33109;HTU21D;19481;51.118;6.940;2022-12-18T10:07:05;0.39;60.96
33109;HTU21D;19481;51.118;6.940;2022-12-18T10:12:13;0.47;60.79
33109;HTU21D;19481;51.118;6.940;2022-12-18T10:17:20;0.52;54.23
33109;HTU21D;19481;51.118;6.940;2022-12-18T10:22:35;0.64;59.68
33109;HTU21D;19481;51.118;6.940;2022-12-18T10:27:39;0.79;60.33
33109;HTU21D;19481;51.118;6.940;2022-12-18T10:32:43;1.03;60.02
33109;HTU21D;19481;51.118;6.940;2022-12-18T10:38:06;1.39;53.59
33109;HTU21D;19481;51.118;6.940;2022-12-18T10:43:12;1.61;54.97
33109;HTU21D;19481;51.118;6.940;2022-12-18T10:48:19;1.35;56.02
33109;HTU21D;19481;51.118;6.940;2022-12-18T10:53:24;1.53;51.97
33109;HTU21D;19481;51.118;6.940;2022-12-18T10:58:28;1.37;56.53
33109;HTU21D;19481;51.118;6.940;2022-12-18T11:03:34;1.38;52.36
33109;HTU21D;19481;51.118;6.940;2022-12-18T11:08:37;1.45;56.88
33109;HTU21D;19481;51.118;6.940;2022-12-18T11:13:39;1.33;55.87
33109;HTU21D;19481;51.118;6.940;2022-12-18T11:18:42;1.36;58.28
33109;HTU21D;19481;51.118;6.940;2022-12-18T11:23:47;1.42;55.96
33109;HTU21D;19481;51.118;6.940;2022-12-18T11:28:51;1.42;52.80
33109;HTU21D;19481;51.118;6.940;2022-12-18T11:34:00;1.49;55.68
33109;HTU21D;19481;51.118;6.940;2022-12-18T11:39:09;1.39;54.95
33109;HTU21D;19481;51.118;6.940;2022-12-18T11:44:15;1.34;57.03
33109;HTU21D;19481;51.118;6.940;2022-12-18T11:49:24;1.19;55.97
33109;HTU21D;19481;51.118;6.940;2022-12-18T11:54:26;1.17;54.68
33109;HTU21D;19481;51.118;6.940;2022-12-18T11:59:34;0.99;53.64
33109;HTU21D;19481;51.118;6.940;2022-12-18T12:05:00;0.97;54.84
33109;HTU21D;19481;51.118;6.940;2022-12-18T12:10:13;0.87;54.65
33109;HTU21D;19481;51.118;6.940;2022-12-18T12:15:23;0.87;54.78
33109;HTU21D;19481;51.118;6.940;2022-12-18T12:20:39;0.86;52.92
33109;HTU21D;19481;51.118;6.940;2022-12-18T12:25:48;0.75;55.81
33109;HTU21D;19481;51.118;6.940;2022-12-18T12:30:57;0.67;55.45
33109;HTU21D;19481;51.118;6.940;2022-12-18T12:36:09;0.60;55.82
33109;HTU21D;19481;51.118;6.940;2022-12-18T12:41:17;0.61;56.10
33109;HTU21D;19481;51.118;6.940;2022-12-18T12:46:39;0.53;56.21
33109;HTU21D;19481;51.118;6.940;2022-12-18T12:51:47;0.57;55.40
33109;HTU21D;19481;51.118;6.940;2022-12-18T12:56:54;0.51;56.45
33109;HTU21D;19481;51.118;6.940;2022-12-18T13:02:03;0.52;56.90
33109;HTU21D;19481;51.118;6.940;2022-12-18T13:07:14;0.52;56.44
33109;HTU21D;19481;51.118;6.940;2022-12-18T13:12:16;0.50;57.00
33109;HTU21D;19481;51.118;6.940;2022-12-18T13:17:35;0.47;57.15
33109;HTU21D;19481;51.118;6.940;2022-12-18T13:22:41;0.44;54.07
33109;HTU21D;19481;51.118;6.940;2022-12-18T13:28:11;0.46;54.47
33109;HTU21D;19481;51.118;6.940;2022-12-18T13:33:39;0.46;56.43
33109;HTU21D;19481;51.118;6.940;2022-12-18T13:38:43;0.40;54.80
33109;HTU21D;19481;51.118;6.940;2022-12-18T13:43:46;0.32;54.39
33109;HTU21D;19481;51.118;6.940;2022-12-18T13:48:55;0.30;53.90
33109;HTU21D;19481;51.118;6.940;2022-12-18T13:54:00;0.28;54.23
33109;HTU21D;19481;51.118;6.940;2022-12-18T13:59:10;0.33;55.94
33109;HTU21D;19481;51.118;6.940;2022-12-18T14:04:19;0.31;54.78
33109;HTU21D;19481;51.118;6.940;2022-12-18T14:09:25;0.31;55.74
33109;HTU21D;19481;51.118;6.940;2022-12-18T14:14:27;0.31;54.45
33109;HTU21D;19481;51.118;6.940;2022-12-18T14:19:28;0.32;54.63
33109;HTU21D;19481;51.118;6.940;2022-12-18T14:24:31;0.20;55.71
33109;HTU21D;19481;51.118;6.940;2022-12-18T14:29:34;0.18;56.16
33109;HTU21D;19481;51.118;6.940;2022-12-18T14:34:36;0.15;57.04
33109;HTU21D;19481;51.118;6.940;2022-12-18T14:39:39;0.12;57.48
33109;HTU21D;19481;51.118;6.940;2022-12-18T14:44:40;0.08;56.17
33109;HTU21D;19481;51.118;6.940;2022-12-18T14:49:43;0.05;56.12
33109;HTU21D;19481;51.118;6.940;2022-12-18T14:54:47;0.02;56.91
33109;HTU21D;19481;51.118;6.940;2022-12-18T14:59:49;-0.01;56.16
33109;HTU21D;19481;51.118;6.940;2022-12-18T15:05:00;-0.02;55.62
33109;HTU21D;19481;51.118;6.940;2022-12-18T15:10:10;-0.06;56.63
33109;HTU21D;19481;51.118;6.940;2022-12-18T15:15:46;-0.06;54.88
33109;HTU21D;19481;51.118;6.940;2022-12-18T15:20:49;-0.09;56.64
33109;HTU21D;19481;51.118;6.940;2022-12-18T15:25:57;-0.13;56.25
33109;HTU21D;19481;51.118;6.940;2022-12-18T15:31:00;-0.20;55.27
33109;HTU21D;19481;51.118;6.940;2022-12-18T15:36:28;-0.20;55.37
33109;HTU21D;19481;51.118;6.940;2022-12-18T15:41:33;-0.25;56.81
33109;HTU21D;19481;51.118;6.940;2022-12-18T15:46:35;-0.25;56.08
33109;HTU21D;19481;51.118;6.940;2022-12-18T15:51:37;-0.30;55.75
33109;HTU21D;19481;51.118;6.940;2022-12-18T15:56:40;-0.32;56.62
33109;HTU21D;19481;51.118;6.940;2022-12-18T16:02:00;-0.36;57.45
33109;HTU21D;19481;51.118;6.940;2022-12-18T16:07:01;-0.39;56.64
33109;HTU21D;19481;51.118;6.940;2022-12-18T16:12:05;-0.42;57.43
33109;HTU21D;19481;51.118;6.940;2022-12-18T16:17:10;-0.44;57.20
33109;HTU21D;19481;51.118;6.940;2022-12-18T16:22:18;-0.47;57.82
33109;HTU21D;19481;51.118;6.940;2022-12-18T16:27:32;-0.46;58.35
33109;HTU21D;19481;51.118;6.940;2022-12-18T16:32:34;-0.52;58.40
33109;HTU21D;19481;51.118;6.940;2022-12-18T16:37:36;-0.51;58.86
33109;HTU21D;19481;51.118;6.940;2022-12-18T16:42:40;-0.55;59.04
33109;HTU21D;19481;51.118;6.940;2022-12-18T16:47:45;-0.54;59.23
33109;HTU21D;19481;51.118;6.940;2022-12-18T16:52:46;-0.59;59.68
33109;HTU21D;19481;51.118;6.940;2022-12-18T16:57:49;-0.60;59.77
33109;HTU21D;19481;51.118;6.940;2022-12-18T17:02:51;-0.59;60.02
33109;HTU21D;19481;51.118;6.940;2022-12-18T17:07:53;-0.59;59.98
33109;HTU21D;19481;51.118;6.940;2022-12-18T17:12:56;-0.60;60.13
33109;HTU21D;19481;51.118;6.940;2022-12-18T17:17:59;-0.62;60.41
33109;HTU21D;19481;51.118;6.940;2022-12-18T17:23:00;-0.66;60.36
33109;HTU21D;19481;51.118;6.940;2022-12-18T17:28:03;-0.69;60.59
33109;HTU21D;19481;51.118;6.940;2022-12-18T17:33:05;-0.73;60.64
33109;HTU21D;19481;51.118;6.940;2022-12-18T17:38:07;-0.75;60.81
33109;HTU21D;19481;51.118;6.940;2022-12-18T17:43:10;-0.76;60.73
33109;HTU21D;19481;51.118;6.940;2022-12-18T17:48:12;-0.83;61.01
33109;HTU21D;19481;51.118;6.940;2022-12-18T17:53:14;-0.82;60.97
33109;HTU21D;19481;51.118;6.940;2022-12-18T17:58:16;-0.85;61.24
33109;HTU21D;19481;51.118;6.940;2022-12-18T18:03:18;-0.89;61.31
33109;HTU21D;19481;51.118;6.940;2022-12-18T18:08:20;-0.88;61.31
33109;HTU21D;19481;51.118;6.940;2022-12-18T18:13:25;-0.91;61.18
33109;HTU21D;19481;51.118;6.940;2022-12-18T18:18:44;-0.93;61.54
33109;HTU21D;19481;51.118;6.940;2022-12-18T18:23:45;-0.94;61.41
33109;HTU21D;19481;51.118;6.940;2022-12-18T18:28:48;-0.95;61.54
33109;HTU21D;19481;51.118;6.940;2022-12-18T18:33:54;-0.98;61.53
33109;HTU21D;19481;51.118;6.940;2022-12-18T18:38:57;-0.98;61.73
33109;HTU21D;19481;51.118;6.940;2022-12-18T18:44:00;-0.98;61.63
33109;HTU21D;19481;51.118;6.940;2022-12-18T18:49:02;-0.99;61.56
33109;HTU21D;19481;51.118;6.940;2022-12-18T18:54:05;-0.99;61.81
33109;HTU21D;19481;51.118;6.940;2022-12-18T18:59:08;-0.97;61.68
33109;HTU21D;19481;51.118;6.940;2022-12-18T19:04:09;-0.97;61.90
33109;HTU21D;19481;51.118;6.940;2022-12-18T19:09:11;-0.93;61.68
33109;HTU21D;19481;51.118;6.940;2022-12-18T19:14:14;-0.88;61.66
33109;HTU21D;19481;51.118;6.940;2022-12-18T19:19:16;-0.85;61.67
33109;HTU21D;19481;51.118;6.940;2022-12-18T19:24:19;-0.81;61.54
33109;HTU21D;19481;51.118;6.940;2022-12-18T19:29:22;-0.80;61.63
33109;HTU21D;19481;51.118;6.940;2022-12-18T19:34:24;-0.77;61.47
33109;HTU21D;19481;51.118;6.940;2022-12-18T19:39:26;-0.76;61.47
33109;HTU21D;19481;51.118;6.940;2022-12-18T19:44:29;-0.71;61.36
33109;HTU21D;19481;51.118;6.940;2022-12-18T19:49:30;-0.68;61.31
33109;HTU21D;19481;51.118;6.940;2022-12-18T19:54:32;-0.65;61.14
33109;HTU21D;19481;51.118;6.940;2022-12-18T19:59:35;-0.59;61.12
33109;HTU21D;19481;51.118;6.940;2022-12-18T20:04:37;-0.56;61.07
33109;HTU21D;19481;51.118;6.940;2022-12-18T20:09:38;-0.52;60.99
33109;HTU21D;19481;51.118;6.940;2022-12-18T20:14:41;-0.49;61.19
33109;HTU21D;19481;51.118;6.940;2022-12-18T20:19:43;-0.44;61.31
33109;HTU21D;19481;51.118;6.940;2022-12-18T20:24:44;-0.41;61.44
33109;HTU21D;19481;51.118;6.940;2022-12-18T20:29:47;-0.40;61.51
33109;HTU21D;19481;51.118;6.940;2022-12-18T20:34:51;-0.38;61.41
33109;HTU21D;19481;51.118;6.940;2022-12-18T20:39:58;-0.32;61.31
33109;HTU21D;19481;51.118;6.940;2022-12-18T20:45:01;-0.27;61.41
33109;HTU21D;19481;51.118;6.940;2022-12-18T20:50:03;-0.23;61.24
33109;HTU21D;19481;51.118;6.940;2022-12-18T20:55:05;-0.17;61.11
33109;HTU21D;19481;51.118;6.940;2022-12-18T21:00:10;-0.13;61.15
33109;HTU21D;19481;51.118;6.940;2022-12-18T21:05:12;-0.13;61.44
33109;HTU21D;19481;51.118;6.940;2022-12-18T21:10:13;-0.07;61.18
33109;HTU21D;19481;51.118;6.940;2022-12-18T21:15:16;-0.03;61.26
33109;HTU21D;19481;51.118;6.940;2022-12-18T21:20:18;-0.01;61.43
33109;HTU21D;19481;51.118;6.940;2022-12-18T21:25:20;-0.00;61.63
33109;HTU21D;19481;51.118;6.940;2022-12-18T21:30:23;-0.00;62.49
33109;HTU21D;19481;51.118;6.940;2022-12-18T21:35:24;-0.06;62.95
33109;HTU21D;19481;51.118;6.940;2022-12-18T21:40:26;-0.02;63.03
33109;HTU21D;19481;51.118;6.940;2022-12-18T21:45:29;-0.00;62.90
33109;HTU21D;19481;51.118;6.940;2022-12-18T21:50:30;0.02;63.34
33109;HTU21D;19481;51.118;6.940;2022-12-18T21:55:32;-0.00;63.98
33109;HTU21D;19481;51.118;6.940;2022-12-18T22:00:35;0.03;63.97
33109;HTU21D;19481;51.118;6.940;2022-12-18T22:05:36;0.03;65.43
33109;HTU21D;19481;51.118;6.940;2022-12-18T22:10:39;0.03;65.37
33109;HTU21D;19481;51.118;6.940;2022-12-18T22:15:42;0.04;65.79
33109;HTU21D;19481;51.118;6.940;2022-12-18T22:20:43;0.04;67.39
33109;HTU21D;19481;51.118;6.940;2022-12-18T22:25:45;0.04;68.65
33109;HTU21D;19481;51.118;6.940;2022-12-18T22:30:48;0.06;69.51
33109;HTU21D;19481;51.118;6.940;2022-12-18T22:35:49;0.10;67.26
33109;HTU21D;19481;51.118;6.940;2022-12-18T22:40:51;0.09;69.56
33109;HTU21D;19481;51.118;6.940;2022-12-18T22:45:54;0.15;67.51
33109;HTU21D;19481;51.118;6.940;2022-12-18T22:50:56;0.16;69.26
33109;HTU21D;19481;51.118;6.940;2022-12-18T22:55:59;0.21;68.12
33109;HTU21D;19481;51.118;6.940;2022-12-18T23:01:02;0.21;69.82
33109;HTU21D;19481;51.118;6.940;2022-12-18T23:06:05;0.28;70.76
33109;HTU21D;19481;51.118;6.940;2022-12-18T23:11:08;0.32;70.40
33109;HTU21D;19481;51.118;6.940;2022-12-18T23:16:13;0.31;69.08
33109;HTU21D;19481;51.118;6.940;2022-12-18T23:21:17;0.32;70.43
33109;HTU21D;19481;51.118;6.940;2022-12-18T23:26:21;0.35;71.68
33109;HTU21D;19481;51.118;6.940;2022-12-18T23:31:26;0.38;69.94
33109;HTU21D;19481;51.118;6.940;2022-12-18T23:36:29;0.43;70.53
33109;HTU21D;19481;51.118;6.940;2022-12-18T23:41:31;0.44;71.67
33109;HTU21D;19481;51.118;6.940;2022-12-18T23:46:34;0.50;70.77
33109;HTU21D;19481;51.118;6.940;2022-12-18T23:51:36;0.54;71.50
33109;HTU21D;19481;51.118;6.940;2022-12-18T23:56:38;0.59;70.32
